Arthur, Arkansas
Current Conditions -  °F | °C
As of 3:53 PM on Friday 24 Oct 2014 (Local Time) from KRUE Reporting Station
Clear Clear  
Wind Chill: 76°   Ceiling: Unl
Heat Index: 76°   Visibility: 8mi
Dew Point: 57°   Wind: 3mph
Humidity: 52%   Direction: 160°SSE
Pressure: 30.08"   Gusts: NA
Location:  35.2722°N, 92.6766°W
Report Text: KRUE 242053Z AUTO 16003KT 8SM CLR 24/14 A3008 RMK AO2 SLP181 T02440139 56021
Loading
Personal Weather Stations






























Interactive Weather Map
Tropical Storm Tracking
New forecast layout! Learn more

10-Day Weather Forecast

Advertisements
Track Severe Weather on mobile